Time;durP1;ratioP1;P1;durP2;ratioP2;P2;SDS_P1;SDS_P2;PMS_P1;PMS_P2;Temp;Humidity;BMP_temperature;BMP_pressure;BME280_temperature;BME280_humidity;BME280_pressure;Samples;Min_cycle;Max_cycle;Signal;HPM_P1;HPM_P2
2022/12/14 00:00:46;;;;;;;50.10;27.00;;;;;;;-0.15;93.43;100200.41;5069645;28;20435;-70
2022/12/14 00:03:12;;;;;;;50.40;27.35;;;;;;;-0.20;93.56;100189.19;5070978;28;20032;-69
2022/12/14 00:05:39;;;;;;;47.58;25.45;;;;;;;-0.20;93.56;100187.44;5070844;28;20024;-69
2022/12/14 00:08:04;;;;;;;46.67;25.83;;;;;;;-0.24;93.40;100167.44;5069351;28;20040;-69
2022/12/14 00:10:31;;;;;;;47.60;25.60;;;;;;;-0.14;94.12;100188.91;5070964;28;20086;-69
2022/12/14 00:12:56;;;;;;;50.40;25.95;;;;;;;-0.21;93.50;100166.44;5070664;28;20028;-69
2022/12/14 00:15:22;;;;;;;45.50;25.10;;;;;;;-0.09;93.72;100186.94;5070697;28;20830;-70
2022/12/14 00:17:47;;;;;;;46.67;25.33;;;;;;;-0.11;93.52;100183.50;5069351;28;20087;-69
2022/12/14 00:20:13;;;;;;;47.03;26.05;;;;;;;-0.24;93.09;100161.28;5070616;28;20376;-69
2022/12/14 00:22:38;;;;;;;49.80;26.45;;;;;;;-0.03;92.81;100190.13;5070193;28;20033;-69
2022/12/14 00:25:04;;;;;;;52.65;27.13;;;;;;;-0.11;92.84;100186.16;5070515;28;20016;-69
2022/12/14 00:27:29;;;;;;;51.22;27.33;;;;;;;-0.09;92.82;100197.47;5069209;28;20016;-69
2022/12/14 00:29:55;;;;;;;49.85;25.88;;;;;;;-0.08;93.33;100200.06;5070201;28;20040;-69
2022/12/14 00:32:20;;;;;;;48.78;26.02;;;;;;;-0.10;93.18;100193.97;5070446;28;20115;-69
2022/12/14 00:34:45;;;;;;;48.55;26.40;;;;;;;-0.08;92.70;100205.31;5071753;28;20027;-74
2022/12/14 00:37:11;;;;;;;51.55;26.30;;;;;;;-0.14;93.09;100194.19;5071779;28;20043;-74
2022/12/14 00:39:36;;;;;;;54.03;28.40;;;;;;;-0.11;92.96;100200.19;5071563;28;20048;-74
2022/12/14 00:42:02;;;;;;;51.50;27.88;;;;;;;-0.08;93.04;100207.09;5071683;28;20025;-74
2022/12/14 00:44:27;;;;;;;52.03;26.95;;;;;;;-0.07;93.19;100206.16;5071629;28;20028;-74
2022/12/14 00:46:52;;;;;;;48.40;26.88;;;;;;;-0.19;93.48;100190.94;5071389;28;20025;-74
2022/12/14 00:49:18;;;;;;;44.85;26.02;;;;;;;-0.09;93.01;100208.03;5070904;28;20033;-74
2022/12/14 00:51:43;;;;;;;49.97;27.40;;;;;;;-0.08;92.66;100207.97;5071143;28;20037;-74
2022/12/14 00:54:09;;;;;;;55.03;27.05;;;;;;;-0.07;92.94;100200.88;5071501;28;20492;-74
2022/12/14 00:56:34;;;;;;;53.03;27.90;;;;;;;-0.10;92.61;100196.63;5071488;28;20020;-74
2022/12/14 00:59:00;;;;;;;52.45;28.40;;;;;;;-0.11;92.97;100202.81;5070065;28;20025;-74
2022/12/14 01:01:25;;;;;;;47.78;26.80;;;;;;;-0.10;92.83;100203.66;5071371;28;20028;-74
2022/12/14 01:04:15;;;;;;;51.20;27.35;;;;;;;-0.16;92.25;100190.78;5071385;28;20029;-74
2022/12/14 01:06:36;;;;;;;50.35;26.42;;;;;;;-0.13;92.08;100201.16;5071222;28;20032;-74
2022/12/14 01:09:02;;;;;;;52.28;26.58;;;;;;;-0.08;92.12;100212.38;5071435;28;20025;-74
2022/12/14 01:11:28;;;;;;;46.72;24.45;;;;;;;-0.11;91.90;100213.38;5071302;28;20035;-74
2022/12/14 01:13:55;;;;;;;46.88;24.77;;;;;;;-0.13;92.10;100211.72;5071332;28;20029;-74
2022/12/14 01:16:20;;;;;;;47.00;24.75;;;;;;;-0.11;92.27;100215.13;5070026;28;20449;-75
2022/12/14 01:18:46;;;;;;;47.75;24.50;;;;;;;-0.15;91.99;100200.41;5071430;28;20082;-74
2022/12/14 01:21:17;;;;;;;41.63;23.55;;;;;;;-0.18;91.60;100197.91;5071190;28;20102;-74
2022/12/14 01:23:44;;;;;;;45.95;25.08;;;;;;;-0.30;91.28;100172.13;5070709;28;20024;-74
2022/12/14 01:26:12;;;;;;;42.13;24.15;;;;;;;-0.21;91.40;100176.97;5071144;28;20033;-74
2022/12/14 01:28:37;;;;;;;43.28;24.52;;;;;;;-0.17;91.10;100179.38;5070160;28;20062;-74
2022/12/14 01:31:14;;;;;;;44.83;24.00;;;;;;;-0.06;91.09;100199.97;5071068;28;20064;-74
2022/12/14 01:33:40;;;;;;;45.70;24.00;;;;;;;-0.10;91.10;100199.25;5071088;28;20106;-74
2022/12/14 01:36:08;;;;;;;43.30;23.52;;;;;;;-0.08;90.83;100202.69;5070033;28;20048;-74
2022/12/14 01:38:34;;;;;;;41.65;23.00;;;;;;;-0.06;90.08;100199.97;5071298;28;20079;-75
2022/12/14 01:41:00;;;;;;;40.88;21.73;;;;;;;-0.04;89.95;100192.84;5071161;28;20028;-74
2022/12/14 01:43:48;;;;;;;39.83;22.10;;;;;;;-0.23;89.52;100152.44;5071134;28;20032;-74
2022/12/14 01:46:20;;;;;;;41.50;23.00;;;;;;;-0.09;89.74;100179.88;5071254;28;20036;-74
2022/12/14 01:48:49;;;;;;;39.08;21.58;;;;;;;-0.19;89.13;100159.31;5069678;28;20021;-69
2022/12/14 01:51:15;;;;;;;38.72;20.67;;;;;;;-0.20;88.76;100168.13;5068302;28;20040;-69
2022/12/14 01:53:40;;;;;;;43.22;22.42;;;;;;;-0.10;89.19;100174.66;5069649;28;20020;-69
2022/12/14 01:56:06;;;;;;;36.03;21.00;;;;;;;-0.09;89.06;100179.03;5069501;28;20032;-69
2022/12/14 01:58:32;;;;;;;42.70;24.08;;;;;;;-0.06;88.32;100169.19;5067981;28;20033;-69
2022/12/14 02:00:59;;;;;;;40.28;22.77;;;;;;;-0.04;88.40;100180.53;5070011;28;20040;-69
2022/12/14 02:03:39;;;;;;;38.60;21.75;;;;;;;-0.05;88.18;100172.69;5073142;28;20138;-69
2022/12/14 02:06:11;;;;;;;39.60;22.27;;;;;;;-0.05;88.10;100170.06;5071954;28;20041;-69
2022/12/14 02:08:40;;;;;;;38.17;21.05;;;;;;;-0.05;87.94;100163.00;5073336;28;20036;-69
2022/12/14 02:11:06;;;;;;;39.97;22.13;;;;;;;-0.11;87.61;100162.44;5073260;28;20035;-69
2022/12/14 02:13:36;;;;;;;38.72;22.23;;;;;;;-0.01;87.01;100168.97;5073225;28;20028;-69
2022/12/14 02:16:01;;;;;;;43.30;22.77;;;;;;;-0.03;87.38;100170.84;5071933;28;20024;-69
2022/12/14 02:18:29;;;;;;;46.15;22.95;;;;;;;-0.05;87.83;100159.50;5072982;28;20422;-69
2022/12/14 02:21:00;;;;;;;43.53;22.52;;;;;;;-0.01;87.75;100172.47;5071641;28;20025;-69
2022/12/14 02:24:10;;;;;;;45.80;22.40;;;;;;;-0.01;87.31;100174.25;5072652;28;20029;-69
2022/12/14 02:26:35;;;;;;;42.78;22.30;;;;;;;-0.06;87.94;100168.34;5018785;28;20586;-70
2022/12/14 02:29:15;;;;;;;45.22;22.75;;;;;;;-0.11;88.30;100167.69;5072704;28;20029;-69
2022/12/14 02:31:57;;;;;;;42.22;21.73;;;;;;;-0.10;88.53;100175.53;5071213;28;20090;-69
2022/12/14 02:34:38;;;;;;;39.00;21.38;;;;;;;-0.25;88.06;100144.63;5072765;28;20058;-70
2022/12/14 02:37:13;;;;;;;41.42;22.77;;;;;;;-0.15;88.96;100156.47;5072616;28;20549;-70
2022/12/14 02:39:41;;;;;;;40.58;22.58;;;;;;;-0.11;88.51;100150.13;5071292;28;20048;-70
2022/12/14 02:42:16;;;;;;;41.65;22.88;;;;;;;-0.15;88.42;100140.66;5072352;28;20031;-70
2022/12/14 02:44:55;;;;;;;42.85;22.55;;;;;;;-0.16;88.66;100132.81;5072315;28;20028;-70
2022/12/14 02:47:59;;;;;;;38.65;21.38;;;;;;;-0.20;88.81;100121.56;5071210;28;20237;-70
2022/12/14 02:50:50;;;;;;;43.17;23.17;;;;;;;-0.07;88.35;100129.72;5068738;28;20102;-70
2022/12/14 02:53:30;;;;;;;45.15;24.52;;;;;;;-0.19;88.52;100109.25;5072270;28;20033;-70
2022/12/14 02:56:00;;;;;;;43.72;22.60;;;;;;;-0.13;88.35;100109.78;5070803;28;20051;-70
2022/12/14 02:58:37;;;;;;;44.75;23.08;;;;;;;-0.24;88.65;100087.53;5072271;28;20118;-70
2022/12/14 03:01:07;;;;;;;43.20;23.17;;;;;;;-0.31;88.23;100068.53;5072054;28;20465;-70
2022/12/14 03:03:32;;;;;;;45.97;24.55;;;;;;;-0.14;88.29;100104.59;5071987;28;20107;-70
2022/12/14 03:06:01;;;;;;;39.05;22.45;;;;;;;-0.18;88.40;100105.69;5070488;28;20089;-70
2022/12/14 03:08:30;;;;;;;46.03;23.88;;;;;;;-0.24;88.98;100103.31;5071597;28;20396;-69
2022/12/14 03:11:02;;;;;;;42.85;23.08;;;;;;;-0.20;88.96;100102.25;5071428;28;20063;-70
2022/12/14 03:13:50;;;;;;;46.30;24.65;;;;;;;-0.25;89.36;100096.38;5069292;28;20473;-70
2022/12/14 03:16:27;;;;;;;39.42;23.05;;;;;;;-0.24;89.78;100098.06;5071736;28;20028;-69
2022/12/14 03:19:34;;;;;;;42.80;23.48;;;;;;;-0.19;88.98;100098.72;5071814;28;20497;-70
2022/12/14 03:22:06;;;;;;;45.35;22.67;;;;;;;-0.24;89.81;100092.78;5071430;28;20029;-70
2022/12/14 03:24:40;;;;;;;39.42;23.08;;;;;;;-0.22;90.11;100096.22;5069610;28;20016;-69
2022/12/14 03:27:14;;;;;;;43.45;21.58;;;;;;;-0.19;90.33;100109.25;5070401;28;20020;-74
2022/12/14 03:29:41;;;;;;;;;;;;;;;-0.23;90.50;100098.00;5066607;28;20036;-75
2022/12/14 03:32:15;;;;;;;38.20;22.20;;;;;;;-0.32;90.51;100081.78;5072810;28;19909;-74
2022/12/14 03:34:48;;;;;;;43.50;22.17;;;;;;;-0.29;90.22;100092.16;5064059;28;20054;-75
2022/12/14 03:37:19;;;;;;;38.40;20.93;;;;;;;-0.25;90.83;100096.38;5072310;28;20040;-75
2022/12/14 03:39:46;;;;;;;42.42;22.45;;;;;;;-0.28;90.83;100099.13;5064955;28;20047;-75
2022/12/14 03:42:38;;;;;;;38.38;21.15;;;;;;;-0.23;90.40;100099.75;5072076;28;20055;-75
2022/12/14 03:45:13;;;;;;;38.67;22.23;;;;;;;-0.26;90.74;100089.38;5072007;28;20500;-75
2022/12/14 03:47:50;;;;;;;38.10;21.17;;;;;;;-0.25;90.56;100091.94;5070093;28;20059;-74
2022/12/14 03:50:23;;;;;;;43.88;23.52;;;;;;;-0.25;90.64;100099.00;5064861;28;20523;-74
2022/12/14 03:53:13;;;;;;;38.25;20.73;;;;;;;-0.28;90.29;100092.09;5068938;28;20061;-75
2022/12/14 03:55:58;;;;;;;37.35;20.20;;;;;;;-0.22;89.17;100106.75;5065441;28;20029;-74
2022/12/14 03:58:45;;;;;;;38.70;21.20;;;;;;;-0.25;89.28;100091.94;5071442;28;20087;-74
2022/12/14 04:01:30;;;;;;;38.22;20.55;;;;;;;-0.27;89.93;100079.75;5070114;28;20783;-74
2022/12/14 04:04:01;;;;;;;;;;;;;;;-0.25;89.74;100070.84;5070002;28;20067;-75
2022/12/14 04:07:03;;;;;;;36.95;18.98;;;;;;;-0.26;89.42;100073.56;5070046;28;19926;-69
2022/12/14 04:09:34;;;;;;;36.50;20.52;;;;;;;-0.24;89.15;100082.25;5068630;28;20028;-70
2022/12/14 04:20:35;;;;;;;31.00;18.00;;;;;;;-0.43;88.76;100060.34;5068554;28;20035;-70
2022/12/14 04:26:03;;;;;;;39.65;20.70;;;;;;;-0.29;88.25;100085.09;5067717;28;20743;-70
2022/12/14 04:26:08;;;;;;;40.22;18.23;;;;;;;-0.26;88.53;100092.88;5070017;28;20106;-70
2022/12/14 04:31:29;;;;;;;34.70;19.35;;;;;;;-0.49;88.58;100045.69;5068355;28;20059;-69
2022/12/14 04:33:57;;;;;;;39.00;20.88;;;;;;;-0.36;88.40;100067.03;5070033;28;20077;-70
2022/12/14 04:36:26;;;;;;;35.10;19.65;;;;;;;-0.36;88.02;100072.28;5070482;28;20067;-70
2022/12/14 04:38:57;;;;;;;37.67;19.90;;;;;;;-0.32;88.04;100065.97;5069947;28;20077;-70
2022/12/14 04:41:28;;;;;;;36.80;20.25;;;;;;;-0.31;88.15;100059.78;5070441;28;20434;-70
2022/12/14 04:43:58;;;;;;;35.15;19.15;;;;;;;-0.23;87.29;100065.50;5070086;28;20429;-69
2022/12/14 04:46:27;;;;;;;33.13;19.02;;;;;;;-0.25;87.50;100054.22;5069010;28;20033;-70
2022/12/14 04:48:56;;;;;;;30.75;18.23;;;;;;;-0.32;87.53;100034.34;5070210;28;20110;-67
2022/12/14 04:51:32;;;;;;;33.53;18.67;;;;;;;-0.11;85.99;100052.63;5069976;28;20054;-68
2022/12/14 04:54:05;;;;;;;32.72;17.55;;;;;;;-0.27;85.46;100025.31;5069012;28;20037;-68
2022/12/14 04:56:44;;;;;;;34.67;18.05;;;;;;;-0.31;86.17;100033.41;5068938;28;20021;-67
2022/12/14 04:59:09;;;;;;;30.25;16.67;;;;;;;-0.28;86.00;100034.13;5070174;28;20032;-68
2022/12/14 05:02:05;;;;;;;28.45;16.58;;;;;;;-0.32;85.75;100016.75;5070161;28;20037;-67
2022/12/14 05:04:40;;;;;;;29.13;16.80;;;;;;;-0.32;85.26;100027.28;5070049;28;20083;-68
2022/12/14 05:07:31;;;;;;;30.48;16.77;;;;;;;-0.34;85.40;100017.75;5068679;28;20484;-68
2022/12/14 05:10:05;;;;;;;29.83;17.08;;;;;;;-0.40;85.52;100007.50;5069943;28;20044;-67
2022/12/14 05:12:37;;;;;;;32.42;17.45;;;;;;;-0.40;85.44;100010.16;5070082;28;20047;-67
2022/12/14 05:15:09;;;;;;;31.27;17.23;;;;;;;-0.51;85.72;99994.03;5070300;28;20028;-67
2022/12/14 05:17:36;;;;;;;28.35;16.50;;;;;;;-0.27;84.41;100014.75;5070176;28;20108;-68
2022/12/14 05:20:03;;;;;;;28.35;16.77;;;;;;;-0.25;84.06;100017.31;5069922;28;20032;-68
2022/12/14 05:22:29;;;;;;;29.90;16.20;;;;;;;-0.43;84.68;99992.72;5069561;28;20059;-68
2022/12/14 05:24:54;;;;;;;25.45;15.65;;;;;;;-0.34;84.70;100007.22;5069776;28;20154;-68
2022/12/14 05:27:20;;;;;;;29.10;16.00;;;;;;;-0.55;84.73;99974.03;5069963;28;20426;-67
2022/12/14 05:29:45;;;;;;;29.80;15.82;;;;;;;-0.41;85.39;100011.94;5069661;28;20111;-68
2022/12/14 05:32:12;;;;;;;26.58;15.57;;;;;;;-0.46;84.93;100000.78;5070089;28;20040;-68
2022/12/14 05:34:38;;;;;;;27.00;15.02;;;;;;;-0.60;84.87;99986.56;5069786;28;20055;-67
2022/12/14 05:37:03;;;;;;;26.20;16.00;;;;;;;-0.81;83.99;99950.75;5073273;28;20064;-70
2022/12/14 05:39:28;;;;;;;28.08;16.00;;;;;;;-0.39;84.11;100009.22;5071880;28;20102;-69
2022/12/14 05:41:54;;;;;;;30.75;16.23;;;;;;;-0.53;84.33;100003.75;5072953;28;20027;-70
2022/12/14 05:44:20;;;;;;;29.17;16.15;;;;;;;-0.45;84.31;100023.53;5072910;28;20051;-70
2022/12/14 05:46:45;;;;;;;25.63;15.30;;;;;;;-0.45;84.89;100022.72;5072890;28;20029;-70
2022/12/14 05:49:11;;;;;;;29.15;16.75;;;;;;;-0.47;84.26;100011.38;5071828;28;20503;-70
2022/12/14 05:51:36;;;;;;;26.60;15.45;;;;;;;-0.58;84.01;99992.63;5072932;28;20075;-67
2022/12/14 05:54:02;;;;;;;26.52;15.98;;;;;;;-0.50;84.10;100008.88;5072661;28;20023;-68
2022/12/14 05:56:27;;;;;;;28.70;15.27;;;;;;;-0.47;84.08;100014.00;5072769;28;20035;-68
2022/12/14 05:58:53;;;;;;;29.92;15.40;;;;;;;-0.98;84.36;99921.72;5072613;28;20020;-67
2022/12/14 06:01:18;;;;;;;30.58;16.48;;;;;;;-0.63;84.87;99973.53;5071375;28;20032;-67
2022/12/14 06:03:44;;;;;;;28.33;16.38;;;;;;;-0.85;85.33;99950.03;5072494;28;20075;-67
2022/12/14 06:06:11;;;;;;;31.73;17.27;;;;;;;-0.64;85.26;99991.09;5072595;28;20020;-68
2022/12/14 06:08:40;;;;;;;30.48;16.83;;;;;;;-0.50;85.16;100019.44;5072474;28;20496;-68
2022/12/14 06:11:08;;;;;;;34.88;16.33;;;;;;;-0.49;85.76;100034.28;5072269;28;20074;-68
2022/12/14 06:13:38;;;;;;;29.70;16.58;;;;;;;-0.53;86.08;100028.34;5071283;28;20020;-67
2022/12/14 06:16:30;;;;;;;29.73;17.42;;;;;;;-0.53;86.20;100025.69;5070528;28;20428;-68
2022/12/14 06:18:57;;;;;;;33.55;17.38;;;;;;;-0.52;86.58;100027.41;5067378;28;20059;-69
2022/12/14 06:21:25;;;;;;;36.25;18.50;;;;;;;-0.70;86.23;99986.16;5071670;28;20020;-70
2022/12/14 06:23:51;;;;;;;29.02;16.27;;;;;;;-0.71;85.90;99979.16;5071720;28;20054;-68
2022/12/14 06:26:17;;;;;;;29.70;17.35;;;;;;;-0.46;86.24;100013.94;5070462;28;20020;-68
2022/12/14 06:28:43;;;;;;;34.65;19.13;;;;;;;-0.56;86.31;100009.19;5065553;28;20412;-67
2022/12/14 06:31:21;;;;;;;34.72;18.05;;;;;;;-0.45;86.12;100010.38;5070446;28;20040;-67
2022/12/14 06:33:47;;;;;;;33.10;18.23;;;;;;;-0.49;85.91;100000.91;5056027;28;20052;-67
2022/12/14 06:36:17;;;;;;;32.22;17.75;;;;;;;-0.49;86.24;100005.31;5068046;28;20037;-69
2022/12/14 06:38:43;;;;;;;34.17;18.40;;;;;;;-0.59;85.87;99967.19;5070914;28;20048;-70
2022/12/14 06:41:09;;;;;;;34.55;18.80;;;;;;;-0.43;86.17;99997.13;5070869;28;20032;-69
2022/12/14 06:43:34;;;;;;;31.55;17.20;;;;;;;-0.50;86.11;99988.69;5072138;28;20021;-70
2022/12/14 06:46:00;;;;;;;30.25;17.08;;;;;;;-0.61;86.35;99962.00;5071680;28;20030;-70
2022/12/14 06:48:25;;;;;;;32.88;18.48;;;;;;;-0.49;86.21;99977.22;5070288;28;20028;-70
2022/12/14 06:50:50;;;;;;;35.25;18.38;;;;;;;-0.40;85.61;99982.03;5072011;28;20260;-70
2022/12/14 06:53:16;;;;;;;31.95;18.33;;;;;;;-0.41;85.95;99987.38;5071791;28;20028;-69
2022/12/14 06:55:42;;;;;;;31.05;17.65;;;;;;;-0.60;85.39;99953.19;5072054;28;20051;-70
2022/12/14 06:58:12;;;;;;;36.67;18.67;;;;;;;-0.58;85.71;99961.84;5070404;28;20123;-70
2022/12/14 07:00:38;;;;;;;31.20;18.88;;;;;;;-0.47;85.97;99980.63;5070367;28;20028;-70
2022/12/14 07:03:03;;;;;;;35.42;18.90;;;;;;;-0.48;86.20;99959.66;5071814;28;20436;-69
2022/12/14 07:05:28;;;;;;;36.55;19.58;;;;;;;-0.38;86.51;99968.78;5070314;28;20032;-70
2022/12/14 07:07:54;;;;;;;33.10;17.70;;;;;;;-0.38;85.74;99974.91;5072212;28;20476;-69
2022/12/14 07:10:19;;;;;;;35.63;19.00;;;;;;;-0.43;85.73;99949.72;5072109;28;20591;-69
2022/12/14 07:12:45;;;;;;;35.83;19.95;;;;;;;-0.39;85.14;99943.38;5069890;28;20021;-69
2022/12/14 07:15:10;;;;;;;34.00;18.73;;;;;;;-0.38;85.74;99974.06;5070333;28;20033;-70
2022/12/14 07:17:36;;;;;;;37.25;19.35;;;;;;;-0.51;86.56;99947.47;5069146;28;20075;-70
2022/12/14 07:20:03;;;;;;;31.83;18.10;;;;;;;-0.39;86.47;99977.59;5069968;28;20045;-70
2022/12/14 07:22:28;;;;;;;32.58;18.48;;;;;;;-0.47;85.86;99958.69;5071073;28;20077;-70
2022/12/14 07:24:54;;;;;;;34.38;18.77;;;;;;;-0.54;85.99;99942.34;5071230;28;20020;-68
2022/12/14 07:27:20;;;;;;;32.17;18.60;;;;;;;-0.54;85.78;99939.69;5071253;28;20043;-68
2022/12/14 07:29:45;;;;;;;32.65;18.42;;;;;;;-0.39;85.56;99967.94;5070979;28;20024;-67
2022/12/14 07:32:11;;;;;;;34.13;18.58;;;;;;;-0.48;86.37;99951.75;5070177;28;20047;-68
2022/12/14 07:34:37;;;;;;;33.60;18.65;;;;;;;-0.52;85.88;99956.28;5070191;28;20055;-67
2022/12/14 07:37:02;;;;;;;34.08;19.65;;;;;;;-0.38;86.17;99987.25;5071462;28;20478;-67
2022/12/14 07:39:27;;;;;;;30.05;18.27;;;;;;;-0.30;86.14;99977.16;5071276;28;20696;-68
2022/12/14 07:41:53;;;;;;;36.28;19.27;;;;;;;-0.37;86.46;99962.59;5071203;28;20032;-67
2022/12/14 07:44:19;;;;;;;34.00;19.45;;;;;;;-0.31;86.12;99959.66;5071056;28;20028;-67
2022/12/14 07:46:44;;;;;;;33.90;17.40;;;;;;;-0.34;85.64;99954.53;5069971;28;20024;-67
2022/12/14 07:49:11;;;;;;;37.90;19.95;;;;;;;-0.25;86.13;99964.63;5071289;28;20020;-67
2022/12/14 07:51:40;;;;;;;35.58;19.52;;;;;;;-0.23;86.85;99953.06;5071271;28;20090;-67
2022/12/14 07:54:06;;;;;;;31.00;17.73;;;;;;;-0.24;86.54;99951.38;5069785;28;20024;-68
2022/12/14 07:56:34;;;;;;;35.80;19.35;;;;;;;-0.33;86.31;99924.63;5071071;28;20036;-67
2022/12/14 07:59:02;;;;;;;33.28;18.75;;;;;;;-0.14;86.43;99957.91;5070437;28;20895;-70
2022/12/14 08:01:31;;;;;;;33.13;18.83;;;;;;;-0.09;86.03;99940.06;5071037;28;20110;-70
2022/12/14 08:03:57;;;;;;;36.45;21.35;;;;;;;-0.07;84.91;99942.59;5070730;28;20082;-70
2022/12/14 08:06:25;;;;;;;36.55;19.70;;;;;;;-0.10;84.73;99942.75;5069665;28;20028;-70
2022/12/14 08:08:51;;;;;;;39.00;20.70;;;;;;;-0.01;84.73;99966.88;5070946;28;20447;-70
2022/12/14 08:11:17;;;;;;;32.83;19.33;;;;;;;0.03;84.88;99943.84;5069340;28;20028;-69
2022/12/14 08:13:43;;;;;;;34.42;19.02;;;;;;;0.02;85.71;99942.16;5070874;28;20090;-70
2022/12/14 08:16:12;;;;;;;32.38;17.55;;;;;;;-0.09;85.58;99923.41;5071033;28;20028;-69
2022/12/14 08:18:38;;;;;;;32.28;18.60;;;;;;;-0.04;84.89;99927.50;5069669;28;20048;-70
2022/12/14 08:21:05;;;;;;;31.67;17.75;;;;;;;0.01;85.32;99929.91;5070571;28;20681;-69
2022/12/14 08:23:31;;;;;;;32.88;18.00;;;;;;;0.10;84.85;99942.63;5070548;28;20059;-69
2022/12/14 08:25:58;;;;;;;33.65;19.15;;;;;;;0.07;85.17;99934.00;5070418;28;20040;-69
2022/12/14 08:28:25;;;;;;;33.35;18.63;;;;;;;0.09;85.17;99937.44;5069127;28;20044;-69
2022/12/14 08:30:51;;;;;;;36.95;20.13;;;;;;;-0.01;85.24;99915.94;5069103;28;20661;-69
2022/12/14 08:33:17;;;;;;;31.70;18.40;;;;;;;0.05;85.39;99926.19;5070444;28;20032;-69
2022/12/14 08:35:43;;;;;;;32.53;19.30;;;;;;;-0.16;85.68;99888.59;5070573;28;20032;-69
2022/12/14 08:38:09;;;;;;;34.15;18.80;;;;;;;-0.13;85.64;99883.16;5070170;28;20052;-69
2022/12/14 08:40:35;;;;;;;32.55;18.65;;;;;;;0.12;85.03;99922.28;5070184;28;20115;-69
2022/12/14 08:43:00;;;;;;;36.00;19.92;;;;;;;0.07;84.75;99905.00;5070112;28;20036;-69
2022/12/14 08:45:26;;;;;;;36.33;19.33;;;;;;;0.13;84.39;99910.84;5068983;28;20031;-69
2022/12/14 08:47:51;;;;;;;35.85;20.00;;;;;;;0.16;84.29;99900.09;5070048;28;20050;-69
2022/12/14 08:50:17;;;;;;;33.15;18.17;;;;;;;0.25;84.48;99912.81;5070402;28;20028;-69
2022/12/14 08:52:46;;;;;;;32.60;18.73;;;;;;;0.26;83.92;99911.91;5070192;28;20469;-69
2022/12/14 08:55:11;;;;;;;31.27;18.63;;;;;;;0.25;83.70;99912.81;5070109;28;20500;-69
2022/12/14 08:57:37;;;;;;;34.28;19.60;;;;;;;0.29;83.85;99924.06;5068797;28;20033;-69
2022/12/14 09:00:03;;;;;;;34.30;18.75;;;;;;;0.33;83.78;99930.88;5069802;28;20029;-70
2022/12/14 09:02:28;;;;;;;30.77;18.33;;;;;;;0.38;83.75;99932.31;5068909;28;20098;-69
2022/12/14 09:04:54;;;;;;;32.50;18.48;;;;;;;0.36;83.55;99936.84;5069810;28;20060;-69
2022/12/14 09:07:19;;;;;;;30.67;17.05;;;;;;;0.38;83.98;99927.06;5069950;28;20025;-69
2022/12/14 09:09:45;;;;;;;31.45;17.52;;;;;;;0.26;83.43;99909.25;5069326;28;20035;-69
2022/12/14 09:12:10;;;;;;;30.05;17.67;;;;;;;0.32;83.50;99902.81;5068565;28;20031;-69
2022/12/14 09:14:35;;;;;;;31.00;17.35;;;;;;;0.35;82.84;99892.94;5069930;28;20041;-69
2022/12/14 09:17:01;;;;;;;27.88;16.50;;;;;;;0.47;82.54;99913.38;5069910;28;20032;-69
2022/12/14 09:19:27;;;;;;;31.35;18.23;;;;;;;0.43;82.72;99896.03;5069867;28;20032;-69
2022/12/14 09:21:53;;;;;;;29.17;16.17;;;;;;;0.54;82.51;99914.75;5069870;28;20089;-69
2022/12/14 09:24:19;;;;;;;31.42;17.73;;;;;;;0.57;81.75;99904.03;5069879;28;20558;-69
2022/12/14 09:26:45;;;;;;;31.20;17.92;;;;;;;0.47;81.68;99883.50;5070055;28;20032;-69
2022/12/14 09:29:16;;;;;;;28.27;16.63;;;;;;;0.47;81.23;99860.63;5069812;28;20420;-69
2022/12/14 09:31:42;;;;;;;26.67;16.13;;;;;;;0.44;80.99;99863.44;5069883;28;20048;-69
2022/12/14 09:34:08;;;;;;;31.02;16.83;;;;;;;0.59;80.73;99882.84;5069676;28;20025;-69
2022/12/14 09:36:33;;;;;;;30.95;17.73;;;;;;;0.59;81.59;99881.06;5068451;28;20036;-69
2022/12/14 09:38:59;;;;;;;37.75;16.83;;;;;;;0.71;81.18;99898.03;5069453;28;20131;-69
2022/12/14 09:41:29;;;;;;;30.40;16.92;;;;;;;0.75;79.97;99908.34;5069768;28;20020;-69
2022/12/14 09:44:23;;;;;;;28.27;16.65;;;;;;;0.76;79.18;99891.56;5069592;28;20048;-69
2022/12/14 09:46:54;;;;;;;;;;;;;;;0.78;79.84;99887.06;5069228;28;20036;-69
2022/12/14 09:49:52;;;;;;;26.98;15.48;;;;;;;0.80;80.17;99877.25;5068618;28;20002;-69
2022/12/14 09:52:28;;;;;;;29.38;16.55;;;;;;;0.74;80.26;99853.81;5057671;28;20464;-69
2022/12/14 09:54:56;;;;;;;31.13;17.35;;;;;;;0.72;79.80;99845.16;5069735;28;20436;-69
2022/12/14 09:57:40;;;;;;;27.08;16.23;;;;;;;0.85;79.59;99861.16;5068286;28;20024;-69
2022/12/14 10:00:18;;;;;;;30.30;17.35;;;;;;;0.84;79.78;99852.38;5069683;28;20059;-69
2022/12/14 10:03:19;;;;;;;27.23;17.38;;;;;;;0.94;80.01;99861.50;5069838;28;20088;-69
2022/12/14 10:06:22;;;;;;;32.28;17.92;;;;;;;0.95;80.24;99852.66;5069668;28;20029;-69
2022/12/14 10:09:19;;;;;;;35.88;20.02;;;;;;;0.99;80.29;99850.66;5068468;28;20489;-69
2022/12/14 10:12:06;;;;;;;32.28;19.17;;;;;;;0.97;80.80;99834.09;5069657;28;20107;-70
2022/12/14 10:14:57;;;;;;;34.20;18.38;;;;;;;0.97;80.54;99832.28;5068041;28;20543;-69
2022/12/14 10:17:49;;;;;;;37.53;18.98;;;;;;;0.94;80.05;99819.28;5069286;28;20423;-69
2022/12/14 10:20:23;;;;;;;37.03;20.10;;;;;;;0.94;80.69;99832.47;5069352;28;20032;-69
2022/12/14 10:22:54;;;;;;;;;;;;;;;0.95;80.82;99835.94;5072905;28;20044;-69
2022/12/14 10:25:30;;;;;;;31.73;18.23;;;;;;;0.92;81.45;99829.06;5073050;28;19913;-69
2022/12/14 10:28:03;;;;;;;30.42;18.10;;;;;;;0.96;81.28;99824.44;5072739;28;20477;-69
2022/12/14 10:30:29;;;;;;;31.77;18.48;;;;;;;0.86;81.49;99796.88;5072727;28;20035;-69
2022/12/14 10:33:24;;;;;;;30.90;17.98;;;;;;;1.01;81.48;99814.47;5071391;28;20036;-69
2022/12/14 10:36:01;;;;;;;33.55;18.90;;;;;;;1.04;81.60;99823.09;5071028;28;20063;-68
2022/12/14 10:38:40;;;;;;;34.15;18.38;;;;;;;1.04;81.04;99815.19;5072666;28;20701;-69
2022/12/14 10:41:17;;;;;;;32.00;18.00;;;;;;;1.10;80.77;99809.50;5072747;28;20028;-69
2022/12/14 10:43:49;;;;;;;39.05;21.27;;;;;;;1.04;81.31;99795.84;5071144;28;20469;-69
2022/12/14 10:46:17;;;;;;;31.88;17.90;;;;;;;1.08;80.71;99800.84;5072668;28;20461;-69
2022/12/14 10:49:03;;;;;;;33.10;19.73;;;;;;;1.07;81.24;99800.94;5072385;28;20093;-69
2022/12/14 10:51:45;;;;;;;38.63;20.08;;;;;;;1.07;81.81;99804.44;5072698;28;20016;-69
2022/12/14 10:54:43;;;;;;;34.63;20.02;;;;;;;1.12;81.85;99810.28;5071117;28;20024;-69
2022/12/14 10:57:16;;;;;;;34.15;18.63;;;;;;;1.10;82.05;99811.31;5070955;28;20574;-69
2022/12/14 10:59:42;;;;;;;33.85;19.23;;;;;;;1.16;81.33;99814.44;5071063;28;20089;-69
2022/12/14 11:02:15;;;;;;;29.35;17.67;;;;;;;1.19;81.51;99814.28;5072097;28;20041;-69
2022/12/14 11:04:57;;;;;;;33.15;19.30;;;;;;;0.92;81.58;99757.78;5072295;28;20048;-69
2022/12/14 11:07:38;;;;;;;32.47;18.63;;;;;;;1.04;81.48;99782.63;5072331;28;20509;-69
2022/12/14 11:10:15;;;;;;;33.05;18.42;;;;;;;1.16;81.49;99797.78;5072048;28;20032;-69
2022/12/14 11:12:40;;;;;;;34.03;19.20;;;;;;;1.01;81.67;99783.66;5072024;28;20377;-69
2022/12/14 11:15:47;;;;;;;32.85;18.48;;;;;;;1.04;81.98;99787.91;5070707;28;20029;-69
2022/12/14 11:18:15;;;;;;;30.45;17.70;;;;;;;1.11;81.50;99790.13;5070642;28;20123;-69
2022/12/14 11:20:59;;;;;;;30.30;18.70;;;;;;;0.95;81.03;99757.63;5070689;28;20456;-69
2022/12/14 11:23:24;;;;;;;31.58;18.17;;;;;;;1.20;80.28;99773.75;5072169;28;20516;-69
2022/12/14 11:25:54;;;;;;;33.78;19.42;;;;;;;1.08;80.65;99773.59;5072044;28;20123;-69
2022/12/14 11:28:25;;;;;;;31.80;18.77;;;;;;;1.14;80.32;99784.66;5071773;28;20110;-69
2022/12/14 11:31:02;;;;;;;31.67;18.42;;;;;;;1.13;80.55;99777.66;5071996;28;20033;-69
2022/12/14 11:33:38;;;;;;;30.98;18.00;;;;;;;1.13;81.09;99782.94;5070690;28;20032;-69
2022/12/14 11:36:04;;;;;;;33.10;18.73;;;;;;;1.09;81.21;99768.22;5071966;28;20434;-69
2022/12/14 11:38:31;;;;;;;34.83;20.67;;;;;;;1.02;82.13;99755.47;5071282;28;20053;-69
2022/12/14 11:41:00;;;;;;;35.58;19.55;;;;;;;0.99;82.28;99753.00;5071501;28;20059;-69
2022/12/14 11:43:29;;;;;;;32.78;18.75;;;;;;;1.12;81.22;99753.97;5070062;28;20121;-69
2022/12/14 11:45:56;;;;;;;32.42;18.73;;;;;;;1.01;81.42;99736.16;5071523;28;20107;-69